Time;durP1;ratioP1;P1;durP2;ratioP2;P2;SDS_P1;SDS_P2;PMS_P1;PMS_P2;Temp;Humidity;BMP_temperature;BMP_pressure;BME280_temperature;BME280_humidity;BME280_pressure;Samples;Min_cycle;Max_cycle;Signal;HPM_P1;HPM_P2
2021/03/29 05:56:19;;;;;;;32.28;16.75;;;;;;;;;;4692939;28;20054;-78
2021/03/29 05:59:02;;;;;;;41.72;18.05;;;;;;;;;;4954670;28;20037;-76
2021/03/29 06:01:39;;;;;;;38.45;18.77;;;;;;;;;;4963961;28;20023;-74
2021/03/29 06:04:07;;;;;;;40.25;19.45;;;;;;;;;;4963413;28;20056;-74
2021/03/29 06:06:34;;;;;;;41.25;19.13;;;;;;;;;;4976202;28;20022;-74
2021/03/29 06:09:00;;;;;;;38.83;19.15;;;;;;;;;;4981063;28;20086;-73
2021/03/29 06:11:28;;;;;;;38.53;18.35;;;;;;;;;;4964626;28;20054;-75
2021/03/29 06:14:06;;;;;;;39.35;19.10;;;;;;;;;;4960554;28;20030;-78
2021/03/29 06:16:32;;;;;;;45.80;21.55;;;;;;;;;;4956753;28;20080;-79
2021/03/29 06:18:59;;;;;;;39.78;19.08;;;;;;;;;;4958158;28;20023;-76
2021/03/29 06:21:25;;;;;;;35.30;17.67;;;;;;;;;;4956882;28;20019;-79
2021/03/29 06:23:58;;;;;;;37.45;18.40;;;;;;;;;;4957213;28;20126;-79
2021/03/29 06:26:26;;;;;;;36.70;18.20;;;;;;;;;;4973915;28;20362;-76
2021/03/29 06:28:53;;;;;;;35.35;17.65;;;;;;;;;;4956802;28;20030;-79
2021/03/29 06:31:26;;;;;;;44.75;19.08;;;;;;;;;;4973015;28;20505;-79
2021/03/29 06:33:53;;;;;;;40.10;18.42;;;;;;;;;;4959541;28;20640;-79
2021/03/29 06:36:30;;;;;;;32.75;17.58;;;;;;;;;;4959423;28;20425;-82
2021/03/29 06:39:17;;;;;;;36.88;19.30;;;;;;;;;;4959270;28;20045;-78
2021/03/29 06:41:53;;;;;;;42.70;20.50;;;;;;;;;;4959339;28;20069;-77
2021/03/29 06:44:33;;;;;;;36.83;19.67;;;;;;;;;;4989613;28;20508;-79
2021/03/29 06:47:12;;;;;;;32.88;17.60;;;;;;;;;;4960022;28;20043;-77
2021/03/29 06:49:40;;;;;;;33.55;17.13;;;;;;;;;;4959809;28;20081;-76
2021/03/29 06:52:22;;;;;;;32.67;16.23;;;;;;;;;;4958576;28;20027;-78
2021/03/29 06:54:49;;;;;;;30.02;14.95;;;;;;;;;;4958917;28;20469;-77
2021/03/29 06:57:26;;;;;;;39.13;16.33;;;;;;;;;;4958539;28;20027;-78
2021/03/29 06:59:52;;;;;;;27.60;14.43;;;;;;;;;;4957014;28;20027;-77
2021/03/29 07:02:41;;;;;;;27.17;14.27;;;;;;;;;;4956844;28;20062;-79
2021/03/29 07:05:17;;;;;;;31.85;15.30;;;;;;;;;;4958420;28;20066;-81
2021/03/29 07:07:50;;;;;;;25.88;13.70;;;;;;;;;;4957658;28;20134;-81
2021/03/29 07:10:22;;;;;;;23.95;13.30;;;;;;;;;;4973888;28;20014;-77
2021/03/29 07:12:53;;;;;;;25.02;12.10;;;;;;;;;;4958133;28;20038;-78
2021/03/29 07:15:19;;;;;;;24.08;12.20;;;;;;;;;;4958545;28;20026;-79
2021/03/29 07:17:46;;;;;;;29.13;14.02;;;;;;;;;;4959324;28;20031;-79
2021/03/29 07:20:14;;;;;;;22.30;12.10;;;;;;;;;;4960050;28;20030;-75
2021/03/29 07:22:41;;;;;;;22.63;10.95;;;;;;;;;;4956814;28;20093;-75
2021/03/29 07:25:09;;;;;;;20.67;10.20;;;;;;;;;;4981764;28;20814;-75
2021/03/29 07:27:38;;;;;;;23.85;11.85;;;;;;;;;;4962700;28;20030;-75
2021/03/29 07:30:05;;;;;;;23.48;10.85;;;;;;;;;;4958589;28;20442;-77
2021/03/29 07:32:33;;;;;;;27.75;11.70;;;;;;;;;;4958053;28;20805;-76
2021/03/29 07:34:59;;;;;;;25.13;10.63;;;;;;;;;;4957993;28;20438;-74
2021/03/29 07:37:44;;;;;;;23.83;10.80;;;;;;;;;;4975145;28;20139;-72
2021/03/29 07:40:10;;;;;;;25.38;11.05;;;;;;;;;;4957000;28;20031;-71
2021/03/29 07:42:37;;;;;;;21.27;10.50;;;;;;;;;;4975046;28;20023;-70
2021/03/29 07:45:11;;;;;;;20.92;9.77;;;;;;;;;;4957335;28;20033;-72
2021/03/29 07:47:40;;;;;;;20.85;9.45;;;;;;;;;;4973335;28;20030;-74
2021/03/29 07:50:07;;;;;;;20.33;9.85;;;;;;;;;;4975635;28;20031;-74
2021/03/29 07:52:35;;;;;;;18.83;8.70;;;;;;;;;;4976393;28;20031;-73
2021/03/29 07:55:15;;;;;;;14.95;8.02;;;;;;;;;;4961153;28;20401;-76
2021/03/29 07:57:45;;;;;;;22.05;8.82;;;;;;;;;;4958338;28;20119;-77
2021/03/29 08:00:40;;;;;;;18.75;8.55;;;;;;;;;;4959676;28;20045;-77
2021/03/29 08:03:12;;;;;;;20.83;7.93;;;;;;;;;;4957983;28;20039;-74
2021/03/29 08:05:38;;;;;;;;;;;;;;;;;;4957723;28;20038;-76
2021/03/29 08:11:02;;;;;;;15.15;8.20;;;;;;;;;;4975595;28;20035;-75
2021/03/29 08:13:36;;;;;;;16.73;8.75;;;;;;;;;;4955962;28;20462;-75
2021/03/29 08:16:03;;;;;;;23.17;9.52;;;;;;;;;;4957234;28;20042;-78
2021/03/29 08:18:29;;;;;;;19.83;8.80;;;;;;;;;;4975212;28;20102;-73
2021/03/29 08:20:56;;;;;;;18.30;7.45;;;;;;;;;;4957737;28;20393;-74
2021/03/29 08:23:36;;;;;;;10.05;4.90;;;;;;;;;;4957359;28;20015;-73
2021/03/29 08:26:09;;;;;;;14.02;6.05;;;;;;;;;;4957259;28;20034;-76
2021/03/29 08:28:54;;;;;;;15.73;6.90;;;;;;;;;;4957550;28;20021;-77
2021/03/29 08:31:39;;;;;;;15.90;7.47;;;;;;;;;;4957746;28;20022;-75
2021/03/29 08:34:06;;;;;;;15.25;6.88;;;;;;;;;;4956581;28;20029;-75
2021/03/29 08:36:32;;;;;;;10.85;5.93;;;;;;;;;;4974410;28;20081;-76
2021/03/29 08:39:19;;;;;;;12.15;4.45;;;;;;;;;;4947902;28;20030;-74
2021/03/29 08:42:00;;;;;;;9.68;5.00;;;;;;;;;;4950574;29;20042;-76
2021/03/29 08:44:27;;;;;;;18.63;5.15;;;;;;;;;;4951069;28;20105;-79
2021/03/29 08:46:54;;;;;;;15.27;5.80;;;;;;;;;;4957568;28;20273;-74
2021/03/29 08:49:26;;;;;;;14.02;5.68;;;;;;;;;;4958524;28;20093;-78
2021/03/29 08:51:52;;;;;;;;;;;;;;;;;;4958884;28;20553;-77
2021/03/29 08:54:19;;;;;;;11.40;5.95;;;;;;;;;;4983097;28;19993;-75
2021/03/29 08:56:54;;;;;;;17.75;7.03;;;;;;;;;;4954761;28;20038;-75
2021/03/29 08:59:26;;;;;;;12.95;5.45;;;;;;;;;;4956741;29;20023;-76
2021/03/29 09:01:53;;;;;;;14.00;5.25;;;;;;;;;;4955076;28;20019;-75
2021/03/29 09:04:19;;;;;;;9.98;4.85;;;;;;;;;;4956583;28;20027;-78
2021/03/29 09:06:45;;;;;;;14.32;5.57;;;;;;;;;;4955671;28;20027;-74
2021/03/29 09:09:12;;;;;;;11.43;5.28;;;;;;;;;;4953530;28;20031;-77
2021/03/29 09:11:39;;;;;;;13.50;5.68;;;;;;;;;;4951248;29;20023;-77
2021/03/29 09:14:06;;;;;;;14.32;4.70;;;;;;;;;;4953909;28;20039;-78
2021/03/29 09:16:32;;;;;;;13.43;4.30;;;;;;;;;;4954245;29;20036;-76
2021/03/29 09:19:10;;;;;;;13.23;5.15;;;;;;;;;;4953671;29;20031;-75
2021/03/29 09:21:38;;;;;;;13.63;4.53;;;;;;;;;;4955586;28;20384;-75
2021/03/29 09:24:14;;;;;;;8.82;4.38;;;;;;;;;;4953831;29;20035;-79
2021/03/29 09:26:40;;;;;;;11.55;5.03;;;;;;;;;;4952571;29;20028;-73
2021/03/29 09:29:19;;;;;;;13.68;5.22;;;;;;;;;;4953080;29;20479;-74
2021/03/29 09:31:45;;;;;;;16.30;5.70;;;;;;;;;;4950792;29;20383;-72
2021/03/29 09:34:13;;;;;;;11.23;5.30;;;;;;;;;;4952827;28;20035;-71
2021/03/29 09:36:39;;;;;;;12.10;5.22;;;;;;;;;;4953492;29;20387;-74
2021/03/29 09:39:13;;;;;;;12.13;4.97;;;;;;;;;;4953442;29;20363;-74
2021/03/29 09:41:51;;;;;;;12.45;5.53;;;;;;;;;;4952575;29;20019;-74
2021/03/29 09:44:17;;;;;;;10.52;4.72;;;;;;;;;;4954184;29;20090;-78
2021/03/29 09:46:43;;;;;;;13.02;7.35;;;;;;;;;;4952901;29;20138;-74
2021/03/29 09:49:11;;;;;;;15.95;7.57;;;;;;;;;;4955895;28;20063;-74
2021/03/29 09:51:38;;;;;;;13.82;6.85;;;;;;;;;;4953993;29;20094;-75
2021/03/29 09:54:22;;;;;;;17.40;7.40;;;;;;;;;;4947727;28;20095;-76
2021/03/29 09:56:49;;;;;;;13.45;7.68;;;;;;;;;;4940597;29;20499;-76
2021/03/29 09:59:24;;;;;;;15.55;7.63;;;;;;;;;;4935690;29;20024;-76
2021/03/29 10:01:50;;;;;;;14.00;6.60;;;;;;;;;;4936916;29;20048;-76
2021/03/29 10:04:16;;;;;;;13.57;5.85;;;;;;;;;;4937849;29;20060;-77
2021/03/29 10:07:12;;;;;;;13.27;5.47;;;;;;;;;;4934337;29;20023;-75
2021/03/29 10:09:38;;;;;;;12.63;5.13;;;;;;;;;;4917496;29;20138;-75
2021/03/29 10:12:05;;;;;;;12.25;6.90;;;;;;;;;;4934221;29;20036;-77
2021/03/29 10:14:38;;;;;;;15.27;6.80;;;;;;;;;;4917876;29;20048;-73
2021/03/29 10:17:20;;;;;;;11.00;5.80;;;;;;;;;;4921246;29;20188;-71
2021/03/29 10:19:46;;;;;;;10.73;6.30;;;;;;;;;;4928869;29;20032;-70
2021/03/29 10:22:17;;;;;;;18.35;7.53;;;;;;;;;;4942709;29;20031;-73
2021/03/29 10:25:22;;;;;;;15.48;7.75;;;;;;;;;;4941010;29;20509;-72
2021/03/29 10:27:49;;;;;;;20.48;8.18;;;;;;;;;;4876495;29;20035;-71
2021/03/29 10:30:18;;;;;;;19.30;9.63;;;;;;;;;;4874039;29;20493;-72
2021/03/29 10:32:45;;;;;;;19.25;8.23;;;;;;;;;;4874999;29;20438;-70
2021/03/29 10:35:12;;;;;;;17.42;8.63;;;;;;;;;;4873808;29;20698;-71
2021/03/29 10:37:38;;;;;;;13.50;6.65;;;;;;;;;;4857136;29;20065;-72
2021/03/29 10:40:06;;;;;;;12.05;5.82;;;;;;;;;;4875738;29;20037;-70
2021/03/29 10:42:35;;;;;;;15.18;6.72;;;;;;;;;;4860114;29;20162;-68
2021/03/29 10:45:02;;;;;;;14.70;5.80;;;;;;;;;;4857821;29;20041;-71
2021/03/29 10:47:29;;;;;;;14.90;5.60;;;;;;;;;;4866686;29;20438;-70
2021/03/29 10:49:55;;;;;;;17.90;6.20;;;;;;;;;;4842282;29;20177;-69
2021/03/29 10:52:21;;;;;;;19.70;7.63;;;;;;;;;;4842148;29;20137;-68
2021/03/29 10:54:48;;;;;;;11.15;5.60;;;;;;;;;;4871822;29;20026;-71
2021/03/29 10:57:14;;;;;;;9.30;4.72;;;;;;;;;;4875612;29;20041;-71
2021/03/29 10:59:40;;;;;;;11.10;5.15;;;;;;;;;;4876210;29;20025;-70
2021/03/29 11:02:06;;;;;;;9.93;4.65;;;;;;;;;;4863738;28;20542;-68
2021/03/29 11:04:33;;;;;;;9.88;5.10;;;;;;;;;;4974015;28;20031;-70
2021/03/29 11:06:59;;;;;;;12.50;4.75;;;;;;;;;;4956595;28;20359;-70
2021/03/29 11:09:25;;;;;;;9.52;4.40;;;;;;;;;;4956148;28;20023;-70
2021/03/29 11:11:52;;;;;;;9.57;4.30;;;;;;;;;;4973057;28;20106;-71
2021/03/29 11:14:20;;;;;;;9.02;4.60;;;;;;;;;;4956257;28;20498;-72
2021/03/29 11:16:46;;;;;;;9.35;3.58;;;;;;;;;;4973304;28;20493;-71
2021/03/29 11:19:12;;;;;;;8.85;3.85;;;;;;;;;;4975744;28;20174;-70
2021/03/29 11:21:38;;;;;;;10.05;4.18;;;;;;;;;;4977110;28;20023;-71
2021/03/29 11:24:05;;;;;;;10.73;4.72;;;;;;;;;;4976866;28;20027;-71
2021/03/29 11:26:31;;;;;;;8.20;4.40;;;;;;;;;;4976932;28;20082;-75
2021/03/29 11:28:57;;;;;;;9.90;4.20;;;;;;;;;;4959733;28;20031;-73
2021/03/29 11:31:24;;;;;;;9.32;4.03;;;;;;;;;;4958877;28;20381;-72
2021/03/29 11:33:51;;;;;;;6.80;3.75;;;;;;;;;;4959925;28;20031;-72
2021/03/29 11:36:18;;;;;;;8.63;3.83;;;;;;;;;;4960235;28;20022;-73
2021/03/29 11:38:44;;;;;;;8.35;3.60;;;;;;;;;;4959574;28;20071;-72
2021/03/29 11:41:10;;;;;;;9.70;4.25;;;;;;;;;;4960452;28;20023;-72
2021/03/29 11:43:36;;;;;;;11.82;4.35;;;;;;;;;;4960344;28;20462;-74
2021/03/29 11:46:02;;;;;;;9.32;4.20;;;;;;;;;;4959937;28;20126;-71
2021/03/29 11:48:28;;;;;;;8.68;4.90;;;;;;;;;;4960235;28;20377;-74
2021/03/29 11:50:55;;;;;;;10.85;4.43;;;;;;;;;;4960390;28;20034;-71
2021/03/29 11:53:23;;;;;;;9.80;4.95;;;;;;;;;;4959649;28;20027;-71
2021/03/29 11:55:49;;;;;;;10.98;4.70;;;;;;;;;;4959491;28;20133;-75
2021/03/29 11:58:15;;;;;;;9.20;4.25;;;;;;;;;;4960086;28;20041;-73
2021/03/29 12:05:38;;;;;;;12.02;5.68;;;;;;;;;;4976791;28;20035;-75
2021/03/29 12:08:13;;;;;;;8.27;4.60;;;;;;;;;;4958406;28;20030;-74
2021/03/29 12:13:24;;;;;;;10.88;4.63;;;;;;;;;;4976290;28;20064;-75
2021/03/29 12:15:53;;;;;;;8.07;4.38;;;;;;;;;;4959596;28;20035;-73
2021/03/29 12:18:23;;;;;;;10.50;4.30;;;;;;;;;;4958699;28;20125;-73
2021/03/29 12:20:50;;;;;;;13.95;4.82;;;;;;;;;;4975927;28;20114;-74
2021/03/29 12:23:16;;;;;;;10.40;4.15;;;;;;;;;;4958765;28;20434;-74
2021/03/29 12:25:47;;;;;;;11.57;4.38;;;;;;;;;;4975088;28;20390;-73
2021/03/29 12:28:14;;;;;;;7.65;3.90;;;;;;;;;;4958561;28;20027;-71
2021/03/29 12:30:41;;;;;;;7.25;3.63;;;;;;;;;;4957978;28;20027;-74
2021/03/29 12:33:09;;;;;;;10.63;3.95;;;;;;;;;;4959346;28;20023;-71
2021/03/29 12:35:36;;;;;;;9.48;4.10;;;;;;;;;;4959040;28;20394;-73
2021/03/29 12:38:03;;;;;;;12.75;4.47;;;;;;;;;;4958462;28;20038;-73
2021/03/29 12:40:32;;;;;;;10.10;4.50;;;;;;;;;;4976207;28;20073;-72
2021/03/29 12:45:29;;;;;;;11.10;4.57;;;;;;;;;;4975470;28;20359;-74
2021/03/29 12:47:59;;;;;;;8.27;3.95;;;;;;;;;;4979913;28;20078;-73
2021/03/29 12:50:26;;;;;;;9.63;3.60;;;;;;;;;;4975319;28;20466;-73
2021/03/29 12:52:53;;;;;;;8.52;3.75;;;;;;;;;;4976277;28;20027;-73
2021/03/29 12:55:21;;;;;;;8.55;3.90;;;;;;;;;;4975641;28;20053;-74
2021/03/29 12:57:47;;;;;;;8.75;3.78;;;;;;;;;;4976053;28;20110;-71
2021/03/29 13:00:17;;;;;;;8.43;4.03;;;;;;;;;;4958531;28;20470;-72
2021/03/29 13:02:44;;;;;;;11.30;4.10;;;;;;;;;;4958185;28;20082;-73
2021/03/29 13:05:15;;;;;;;12.43;4.13;;;;;;;;;;4958450;28;20035;-72
2021/03/29 13:07:47;;;;;;;12.38;3.85;;;;;;;;;;4958261;28;20023;-70
2021/03/29 13:12:56;;;;;;;10.20;4.50;;;;;;;;;;4975292;28;20042;-71
2021/03/29 13:15:22;;;;;;;9.77;4.25;;;;;;;;;;4973876;28;20470;-73
2021/03/29 13:17:49;;;;;;;11.10;3.80;;;;;;;;;;4975106;28;20027;-72
2021/03/29 13:20:16;;;;;;;12.20;4.22;;;;;;;;;;4975268;28;20023;-72
2021/03/29 13:22:43;;;;;;;10.73;4.05;;;;;;;;;;4975761;28;20034;-74
2021/03/29 13:25:10;;;;;;;6.75;3.53;;;;;;;;;;4958477;28;20470;-73
2021/03/29 13:27:36;;;;;;;10.98;3.58;;;;;;;;;;4974934;28;20494;-74
2021/03/29 13:30:10;;;;;;;9.32;3.67;;;;;;;;;;4974902;28;20418;-73
2021/03/29 13:32:37;;;;;;;6.53;3.60;;;;;;;;;;4957781;28;20023;-72
2021/03/29 13:35:03;;;;;;;9.93;4.22;;;;;;;;;;4973533;28;20031;-74
2021/03/29 13:37:29;;;;;;;9.68;4.05;;;;;;;;;;4973898;28;20031;-70
2021/03/29 13:39:57;;;;;;;7.93;4.07;;;;;;;;;;4973802;28;20046;-71
2021/03/29 13:42:23;;;;;;;10.50;4.20;;;;;;;;;;4957292;28;20363;-72
2021/03/29 13:44:49;;;;;;;7.95;3.47;;;;;;;;;;4957995;28;20026;-71
2021/03/29 13:47:15;;;;;;;8.50;3.92;;;;;;;;;;4958106;28;20139;-72
2021/03/29 13:49:41;;;;;;;7.63;2.80;;;;;;;;;;4975002;28;20149;-74
2021/03/29 13:52:08;;;;;;;7.72;3.20;;;;;;;;;;4975174;28;20030;-74
2021/03/29 13:54:35;;;;;;;14.98;8.70;;;;;;;;;;4975507;28;20032;-70
2021/03/29 13:57:05;;;;;;;6.35;3.92;;;;;;;;;;4957989;28;20042;-71
2021/03/29 13:59:31;;;;;;;6.82;3.30;;;;;;;;;;4973980;28;20381;-70
2021/03/29 14:01:58;;;;;;;9.07;3.42;;;;;;;;;;4973312;28;20495;-70
2021/03/29 14:04:24;;;;;;;5.85;3.03;;;;;;;;;;4957157;28;20393;-74
2021/03/29 14:06:50;;;;;;;9.48;4.03;;;;;;;;;;4976882;28;20053;-72
2021/03/29 14:09:18;;;;;;;7.93;3.78;;;;;;;;;;4957144;28;20027;-74
2021/03/29 14:11:46;;;;;;;7.85;3.40;;;;;;;;;;4953998;28;20015;-75
2021/03/29 14:14:13;;;;;;;6.80;3.17;;;;;;;;;;4955622;28;20158;-72
2021/03/29 14:16:39;;;;;;;8.65;3.33;;;;;;;;;;4956685;28;20046;-75
2021/03/29 14:19:06;;;;;;;6.18;3.10;;;;;;;;;;4955930;28;20019;-74
2021/03/29 14:21:33;;;;;;;11.93;3.45;;;;;;;;;;4973915;28;20023;-73
2021/03/29 14:23:59;;;;;;;8.30;3.83;;;;;;;;;;4972641;28;20026;-76
2021/03/29 14:26:25;;;;;;;13.63;4.50;;;;;;;;;;4951884;28;20359;-71
2021/03/29 14:28:51;;;;;;;8.82;4.05;;;;;;;;;;4974041;28;20525;-73
2021/03/29 14:31:18;;;;;;;8.05;3.00;;;;;;;;;;4955610;28;20374;-72
2021/03/29 14:33:46;;;;;;;6.95;3.10;;;;;;;;;;4955518;28;20023;-74
2021/03/29 14:44:11;;;;;;;7.93;3.83;;;;;;;;;;4971915;28;20390;-73
2021/03/29 14:46:37;;;;;;;12.60;3.92;;;;;;;;;;4953755;28;20377;-71
2021/03/29 14:49:04;;;;;;;8.07;2.85;;;;;;;;;;4972006;28;20058;-68
2021/03/29 14:51:31;;;;;;;10.93;3.10;;;;;;;;;;4954438;28;20030;-69
2021/03/29 14:53:58;;;;;;;8.38;3.00;;;;;;;;;;4973672;28;20088;-69
2021/03/29 14:56:24;;;;;;;7.68;3.65;;;;;;;;;;4957726;28;20512;-68
2021/03/29 14:58:50;;;;;;;6.60;3.03;;;;;;;;;;4957845;28;20403;-67
2021/03/29 15:01:22;;;;;;;7.88;3.40;;;;;;;;;;4954746;28;20110;-65
2021/03/29 15:03:51;;;;;;;6.43;2.77;;;;;;;;;;4973887;28;20114;-66
2021/03/29 15:09:16;;;;;;;9.95;3.38;;;;;;;;;;4942162;28;20031;-65
2021/03/29 15:11:42;;;;;;;9.75;3.60;;;;;;;;;;4976093;28;20126;-66
2021/03/29 15:14:08;;;;;;;10.52;3.90;;;;;;;;;;4976290;28;20022;-65
2021/03/29 15:16:34;;;;;;;10.50;3.63;;;;;;;;;;4974549;28;20677;-67
2021/03/29 15:19:02;;;;;;;8.80;3.65;;;;;;;;;;4974884;28;20110;-67
2021/03/29 15:21:28;;;;;;;9.65;3.70;;;;;;;;;;4973657;28;20014;-67
2021/03/29 15:23:54;;;;;;;7.40;3.15;;;;;;;;;;4976666;28;20127;-68
2021/03/29 15:26:20;;;;;;;7.60;3.33;;;;;;;;;;4976730;28;20021;-68
2021/03/29 15:28:46;;;;;;;8.13;3.25;;;;;;;;;;4977063;28;20046;-66
2021/03/29 15:31:12;;;;;;;9.30;4.25;;;;;;;;;;4976648;28;20054;-68
2021/03/29 15:33:39;;;;;;;9.80;3.63;;;;;;;;;;4974962;28;20351;-68
2021/03/29 15:36:05;;;;;;;13.35;6.13;;;;;;;;;;4975219;28;20031;-67
2021/03/29 15:38:31;;;;;;;20.67;7.32;;;;;;;;;;4975313;28;20026;-68
2021/03/29 15:40:58;;;;;;;9.70;4.10;;;;;;;;;;4973909;28;20031;-66
2021/03/29 15:43:24;;;;;;;12.13;4.60;;;;;;;;;;4974056;28;20117;-66
2021/03/29 15:45:50;;;;;;;7.60;3.72;;;;;;;;;;4974774;28;20386;-67
2021/03/29 15:48:16;;;;;;;8.48;3.08;;;;;;;;;;4953047;28;20031;-67
2021/03/29 15:50:42;;;;;;;7.13;3.15;;;;;;;;;;4974608;28;20019;-66
2021/03/29 15:53:08;;;;;;;10.23;3.83;;;;;;;;;;4976838;28;20027;-68
2021/03/29 15:55:35;;;;;;;9.38;3.50;;;;;;;;;;4974865;28;20082;-69
2021/03/29 15:58:02;;;;;;;8.07;4.20;;;;;;;;;;4973742;28;20389;-67
2021/03/29 16:00:28;;;;;;;14.68;7.40;;;;;;;;;;4975916;28;20015;-65
2021/03/29 16:03:06;;;;;;;17.38;5.55;;;;;;;;;;4976160;28;20089;-67
2021/03/29 16:05:32;;;;;;;8.10;3.80;;;;;;;;;;4975816;28;20497;-68
2021/03/29 16:07:58;;;;;;;7.57;3.42;;;;;;;;;;4976837;28;20031;-69
2021/03/29 16:10:24;;;;;;;12.18;4.05;;;;;;;;;;4975389;28;20026;-66
2021/03/29 16:12:50;;;;;;;11.70;3.72;;;;;;;;;;4975734;28;20030;-67
2021/03/29 16:15:17;;;;;;;7.90;3.72;;;;;;;;;;4975978;28;20037;-67
2021/03/29 16:17:43;;;;;;;11.30;4.70;;;;;;;;;;4975040;28;20029;-69
2021/03/29 16:20:09;;;;;;;10.88;4.38;;;;;;;;;;4975657;28;20019;-68
2021/03/29 16:22:36;;;;;;;7.88;3.70;;;;;;;;;;4975340;28;20034;-66
2021/03/29 16:25:03;;;;;;;8.90;3.30;;;;;;;;;;4973863;28;20094;-67
2021/03/29 16:27:30;;;;;;;16.45;4.85;;;;;;;;;;4957648;28;20026;-66
2021/03/29 16:29:57;;;;;;;8.90;3.50;;;;;;;;;;4975143;28;20023;-69
2021/03/29 16:32:24;;;;;;;10.88;3.50;;;;;;;;;;4974658;28;20686;-69
2021/03/29 16:34:51;;;;;;;8.98;3.60;;;;;;;;;;4976056;28;20031;-70
2021/03/29 16:37:17;;;;;;;12.82;4.13;;;;;;;;;;4975821;28;20023;-70
2021/03/29 16:39:43;;;;;;;10.25;4.22;;;;;;;;;;4973701;28;20046;-69
2021/03/29 16:42:10;;;;;;;11.70;4.85;;;;;;;;;;4958155;28;20398;-70
2021/03/29 16:44:36;;;;;;;13.40;6.40;;;;;;;;;;4957640;28;20149;-69
2021/03/29 16:47:02;;;;;;;11.15;4.95;;;;;;;;;;4974743;28;20026;-68
2021/03/29 16:49:28;;;;;;;19.27;9.65;;;;;;;;;;4975388;28;20023;-69
2021/03/29 16:51:55;;;;;;;15.82;7.40;;;;;;;;;;4975438;28;20027;-69
2021/03/29 16:54:21;;;;;;;11.38;5.03;;;;;;;;;;4975187;28;20023;-68
2021/03/29 16:56:47;;;;;;;15.88;7.32;;;;;;;;;;4975744;28;20077;-69
2021/03/29 16:59:15;;;;;;;11.48;6.05;;;;;;;;;;4975500;28;20023;-72
2021/03/29 17:01:41;;;;;;;13.38;5.32;;;;;;;;;;4956718;28;20022;-71
2021/03/29 17:04:07;;;;;;;16.13;4.75;;;;;;;;;;4975796;28;20023;-70
2021/03/29 17:06:34;;;;;;;18.05;8.65;;;;;;;;;;4957970;28;20065;-72
2021/03/29 17:09:00;;;;;;;22.08;12.30;;;;;;;;;;4956113;28;20630;-72
2021/03/29 17:11:26;;;;;;;19.02;10.68;;;;;;;;;;4973216;28;20034;-70
2021/03/29 17:13:52;;;;;;;12.07;6.53;;;;;;;;;;4974380;28;21299;-70
2021/03/29 17:16:18;;;;;;;12.45;6.15;;;;;;;;;;4973618;28;20110;-71
2021/03/29 17:18:44;;;;;;;21.45;9.20;;;;;;;;;;4974011;28;20312;-70
2021/03/29 17:21:11;;;;;;;16.88;7.53;;;;;;;;;;4974048;28;20069;-69
2021/03/29 17:23:37;;;;;;;42.95;19.00;;;;;;;;;;4950839;28;20026;-70
2021/03/29 17:26:03;;;;;;;18.48;9.02;;;;;;;;;;4974544;28;20142;-75
2021/03/29 17:28:30;;;;;;;16.95;8.98;;;;;;;;;;4974379;28;20022;-70
2021/03/29 17:30:56;;;;;;;16.75;7.43;;;;;;;;;;4971717;28;20080;-74
2021/03/29 17:33:22;;;;;;;15.57;7.18;;;;;;;;;;4974650;28;20117;-69
2021/03/29 17:35:48;;;;;;;21.42;8.50;;;;;;;;;;4974043;28;20039;-71
2021/03/29 17:38:14;;;;;;;13.15;5.10;;;;;;;;;;4973450;28;20143;-70
2021/03/29 17:40:40;;;;;;;20.48;8.95;;;;;;;;;;4973617;28;20021;-70
2021/03/29 17:43:06;;;;;;;13.73;5.85;;;;;;;;;;4973813;28;20023;-71
2021/03/29 17:45:32;;;;;;;11.52;5.70;;;;;;;;;;4970177;28;20113;-71
2021/03/29 17:47:59;;;;;;;18.48;8.60;;;;;;;;;;4974355;28;20058;-72
2021/03/29 17:50:25;;;;;;;15.57;6.05;;;;;;;;;;4955796;28;20069;-72
2021/03/29 17:52:52;;;;;;;18.02;6.45;;;;;;;;;;4972790;28;20025;-72
2021/03/29 17:55:18;;;;;;;20.52;10.27;;;;;;;;;;4971762;28;20050;-70
2021/03/29 17:57:44;;;;;;;13.90;6.55;;;;;;;;;;4954685;28;20075;-70
2021/03/29 18:00:13;;;;;;;16.30;8.27;;;;;;;;;;4954269;28;20382;-70
2021/03/29 18:02:42;;;;;;;28.88;12.63;;;;;;;;;;4971030;28;20018;-70
2021/03/29 18:05:18;;;;;;;35.55;17.55;;;;;;;;;;4972068;28;20027;-70
2021/03/29 18:07:45;;;;;;;31.60;16.25;;;;;;;;;;4972062;28;20026;-71
2021/03/29 18:10:14;;;;;;;17.60;8.55;;;;;;;;;;4972185;28;20815;-67
2021/03/29 18:12:40;;;;;;;40.63;23.20;;;;;;;;;;4954096;28;20023;-69
2021/03/29 18:15:07;;;;;;;31.20;17.17;;;;;;;;;;4973741;28;20094;-69
2021/03/29 18:17:33;;;;;;;40.17;19.70;;;;;;;;;;4973256;28;20533;-69
2021/03/29 18:20:04;;;;;;;40.17;20.20;;;;;;;;;;4972973;28;20023;-69
2021/03/29 18:22:30;;;;;;;32.15;17.10;;;;;;;;;;4972575;28;20027;-69
2021/03/29 18:24:56;;;;;;;41.17;16.30;;;;;;;;;;4971146;28;20486;-68
2021/03/29 18:27:22;;;;;;;48.22;24.00;;;;;;;;;;4955554;28;20383;-69
2021/03/29 18:29:48;;;;;;;44.78;23.73;;;;;;;;;;4954725;28;20157;-68
2021/03/29 18:32:14;;;;;;;55.72;26.50;;;;;;;;;;4970232;28;20019;-70
2021/03/29 18:34:41;;;;;;;45.65;24.92;;;;;;;;;;4972432;28;20080;-68
2021/03/29 18:37:07;;;;;;;38.88;20.60;;;;;;;;;;4973816;28;20039;-69
2021/03/29 18:39:33;;;;;;;22.42;11.20;;;;;;;;;;4954075;28;20022;-70
2021/03/29 18:41:59;;;;;;;24.02;11.70;;;;;;;;;;4969915;28;20050;-68
2021/03/29 18:44:25;;;;;;;15.52;7.68;;;;;;;;;;4972878;28;20046;-67
2021/03/29 18:46:52;;;;;;;59.35;24.33;;;;;;;;;;4971597;28;20054;-69
2021/03/29 18:49:18;;;;;;;40.13;16.65;;;;;;;;;;4974254;28;20494;-69
2021/03/29 18:51:44;;;;;;;41.50;20.48;;;;;;;;;;4956137;28;20026;-68
2021/03/29 18:54:12;;;;;;;44.00;19.20;;;;;;;;;;4980330;28;20474;-71
2021/03/29 18:56:46;;;;;;;23.23;11.52;;;;;;;;;;4960513;28;20062;-71
2021/03/29 18:59:12;;;;;;;72.47;31.98;;;;;;;;;;4972039;28;20027;-67
2021/03/29 19:01:42;;;;;;;49.55;25.35;;;;;;;;;;4970898;28;20069;-70
2021/03/29 19:04:08;;;;;;;45.95;22.17;;;;;;;;;;4970942;28;20351;-69
2021/03/29 19:06:37;;;;;;;41.50;19.17;;;;;;;;;;4970628;28;20026;-70
2021/03/29 19:09:05;;;;;;;39.95;21.45;;;;;;;;;;4954280;28;20019;-70
2021/03/29 19:11:31;;;;;;;55.05;27.27;;;;;;;;;;4971950;28;20027;-68
2021/03/29 19:13:57;;;;;;;44.10;20.98;;;;;;;;;;4973645;28;20363;-69
2021/03/29 19:16:24;;;;;;;42.58;21.90;;;;;;;;;;4980048;28;20042;-71
2021/03/29 19:18:50;;;;;;;46.33;24.23;;;;;;;;;;4977907;28;20035;-69
2021/03/29 19:21:17;;;;;;;40.92;19.85;;;;;;;;;;4981154;28;20035;-69
2021/03/29 19:23:43;;;;;;;41.97;20.33;;;;;;;;;;4981526;28;20031;-67
2021/03/29 19:26:16;;;;;;;35.50;16.38;;;;;;;;;;4971657;28;20046;-66
2021/03/29 19:28:42;;;;;;;30.48;14.88;;;;;;;;;;4988443;28;20019;-69
2021/03/29 19:31:09;;;;;;;30.40;15.13;;;;;;;;;;4980056;28;20023;-68
2021/03/29 19:33:35;;;;;;;27.70;13.57;;;;;;;;;;4974795;28;20027;-72
2021/03/29 19:36:02;;;;;;;28.85;12.93;;;;;;;;;;4977358;28;20505;-70
2021/03/29 19:38:32;;;;;;;28.42;14.65;;;;;;;;;;4962534;28;20035;-71
2021/03/29 19:40:58;;;;;;;37.10;16.30;;;;;;;;;;4979634;28;20022;-69
2021/03/29 19:43:24;;;;;;;31.95;16.10;;;;;;;;;;4957929;28;20418;-71
2021/03/29 19:45:50;;;;;;;30.70;13.20;;;;;;;;;;4974713;28;20031;-72
2021/03/29 19:48:17;;;;;;;26.95;13.05;;;;;;;;;;4974429;28;20027;-71
2021/03/29 19:50:43;;;;;;;28.00;13.75;;;;;;;;;;4960234;28;20062;-70
2021/03/29 19:53:09;;;;;;;29.63;13.35;;;;;;;;;;4948990;28;20821;-69
2021/03/29 19:55:35;;;;;;;27.83;13.43;;;;;;;;;;4952663;28;20098;-70
2021/03/29 19:58:04;;;;;;;22.98;12.25;;;;;;;;;;4935722;29;20042;-68
2021/03/29 20:00:32;;;;;;;25.85;12.27;;;;;;;;;;4946391;29;20563;-70
2021/03/29 20:03:00;;;;;;;30.65;13.70;;;;;;;;;;4942258;29;20118;-69
2021/03/29 20:05:31;;;;;;;26.13;12.68;;;;;;;;;;4947977;29;20039;-71
2021/03/29 20:08:32;;;;;;;23.25;11.52;;;;;;;;;;4935041;29;20026;-71
2021/03/29 20:10:50;;;;;;;27.98;12.85;;;;;;;;;;4945573;29;20035;-69
2021/03/29 20:13:16;;;;;;;29.80;14.85;;;;;;;;;;4948541;28;20094;-72
2021/03/29 20:15:42;;;;;;;31.90;15.57;;;;;;;;;;4932488;29;20050;-69
2021/03/29 20:18:08;;;;;;;33.75;15.95;;;;;;;;;;4947009;28;21082;-71
2021/03/29 20:20:35;;;;;;;30.67;15.85;;;;;;;;;;4943902;28;20104;-68
2021/03/29 20:23:04;;;;;;;33.60;16.15;;;;;;;;;;4972270;28;20038;-70
2021/03/29 20:25:31;;;;;;;31.27;16.52;;;;;;;;;;4954732;28;20034;-69
2021/03/29 20:27:57;;;;;;;37.97;17.85;;;;;;;;;;4973850;28;20019;-71
2021/03/29 20:30:24;;;;;;;35.65;16.83;;;;;;;;;;4955182;28;20019;-69
2021/03/29 20:32:50;;;;;;;36.40;16.10;;;;;;;;;;4973246;28;20054;-70
2021/03/29 20:35:17;;;;;;;34.10;16.83;;;;;;;;;;4955617;28;20046;-69
2021/03/29 20:37:44;;;;;;;32.55;16.98;;;;;;;;;;4971935;28;20498;-69
2021/03/29 20:40:11;;;;;;;34.45;16.27;;;;;;;;;;4965389;28;20057;-70
2021/03/29 20:42:37;;;;;;;33.05;17.40;;;;;;;;;;4973573;28;20033;-68
2021/03/29 20:45:04;;;;;;;30.55;16.50;;;;;;;;;;4973732;28;20031;-69
2021/03/29 20:47:30;;;;;;;34.05;16.60;;;;;;;;;;4973616;28;20019;-69
2021/03/29 20:49:56;;;;;;;37.67;16.73;;;;;;;;;;4970986;28;20026;-68
2021/03/29 20:52:22;;;;;;;32.47;16.15;;;;;;;;;;4974437;28;20113;-72
2021/03/29 20:54:49;;;;;;;32.83;15.70;;;;;;;;;;4975581;28;20089;-71
2021/03/29 20:57:15;;;;;;;35.38;16.08;;;;;;;;;;4957801;28;20026;-69